createdAt,value
2022-07-30T08:45:43.830Z,18.3
2022-07-30T08:55:44.540Z,19.1
2022-07-30T09:15:46.136Z,19.9
2022-07-30T09:35:46.709Z,21
2022-07-30T09:45:56.945Z,21.8
2022-07-30T09:55:48.258Z,21.3
2022-07-30T10:05:49.232Z,21.9
2022-07-30T10:15:49.451Z,22.6
2022-07-30T10:35:50.866Z,22.7
2022-07-30T10:45:51.155Z,23.2
2022-07-30T10:55:51.465Z,23.3
2022-07-30T11:05:52.029Z,23.8
2022-07-30T11:15:52.386Z,24
2022-07-30T11:35:52.837Z,23.8
2022-07-30T11:45:53.156Z,24.1
2022-07-30T11:55:53.568Z,24.9
2022-07-30T12:05:54.122Z,24.8
2022-07-30T12:15:55.065Z,25.2
2022-07-30T12:25:55.109Z,25.7
2022-07-30T12:35:55.738Z,24.9
2022-07-30T12:45:56.395Z,24.5
2022-07-30T12:55:57.198Z,25.1
2022-07-30T13:05:57.719Z,25.3
2022-07-30T13:15:58.274Z,25.8
2022-07-30T13:25:58.430Z,25.7
2022-07-30T13:35:58.894Z,24.8
2022-07-30T13:45:59.610Z,25.3
2022-07-30T13:55:59.865Z,25.4
2022-07-30T14:06:10.277Z,25.5
2022-07-30T14:16:00.650Z,25.9
2022-07-30T14:26:01.041Z,25.8
2022-07-30T14:36:01.862Z,26.3
2022-07-30T14:46:02.324Z,26.2
2022-07-30T14:56:02.494Z,26.2
2022-07-30T15:06:02.926Z,26.4
2022-07-30T15:16:03.162Z,26.2
2022-07-30T15:26:03.613Z,25.9
2022-07-30T15:36:03.951Z,26.4
2022-07-30T15:46:04.229Z,26.6
2022-07-30T15:56:04.677Z,26.5
2022-07-30T16:26:06.630Z,26.7
2022-07-30T16:36:06.850Z,26.1
2022-07-30T16:46:07.531Z,25.8
2022-07-30T16:56:08.273Z,25.5
2022-07-30T17:26:10.650Z,25.8
2022-07-30T17:36:10.980Z,25
2022-07-30T17:46:11.286Z,24.9
2022-07-30T17:56:26.698Z,24.9
2022-07-30T18:26:13.768Z,24.5
2022-07-30T18:36:14.119Z,24.4
2022-07-30T18:46:14.537Z,24.5
2022-07-30T18:56:15.469Z,24.3
2022-07-30T19:06:16.390Z,24.1
2022-07-30T19:16:16.711Z,23.8
2022-07-30T19:26:16.871Z,23.6
2022-07-30T19:36:17.278Z,23.6
2022-07-30T19:46:18.460Z,23.5
2022-07-30T19:56:19.550Z,23.3
2022-07-30T20:06:19.245Z,23.1
2022-07-30T20:16:19.764Z,23
2022-07-30T20:26:19.891Z,22.9
2022-07-30T20:36:20.593Z,22.5
2022-07-30T20:46:23.036Z,22.3
2022-07-30T20:56:21.965Z,22
2022-07-30T21:16:23.485Z,21.8
2022-07-30T21:26:23.886Z,21.7
2022-07-30T21:36:24.685Z,21.9
2022-07-30T21:46:25.106Z,22
2022-07-30T21:56:24.583Z,22.1
2022-07-30T22:06:25.510Z,21.9
2022-07-30T22:16:25.667Z,21.8
2022-07-30T22:36:26.353Z,21.3
2022-07-30T22:39:04.717Z,21.3
2022-07-30T22:46:35.037Z,21.2
2022-07-30T22:56:35.437Z,21.1
2022-07-30T23:06:36.471Z,21.1
2022-07-30T23:16:37.006Z,20.9
2022-07-30T23:26:37.746Z,20.8
2022-07-30T23:36:38.155Z,20.7
2022-07-30T23:46:38.903Z,20.7
2022-07-30T23:56:39.253Z,20.7
